Time;durP1;ratioP1;P1;durP2;ratioP2;P2;SDS_P1;SDS_P2;PMS_P1;PMS_P2;Temp;Humidity;BMP_temperature;BMP_pressure;BME280_temperature;BME280_humidity;BME280_pressure;Samples;Min_cycle;Max_cycle;Signal;HPM_P1;HPM_P2
2022/01/13 00:01:54;;;;;;;10.15;3.95;;;3.20;93.20;;;;;;6335204;22;20006;-81
2022/01/13 00:04:20;;;;;;;10.13;3.92;;;3.20;93.20;;;;;;6335109;22;20349;-81
2022/01/13 00:06:46;;;;;;;11.75;3.90;;;3.20;93.20;;;;;;6337054;22;20006;-81
2022/01/13 00:09:12;;;;;;;11.23;4.00;;;3.10;93.20;;;;;;6362027;22;20014;-81
2022/01/13 00:11:39;;;;;;;10.63;3.40;;;3.10;93.20;;;;;;6335064;22;20003;-81
2022/01/13 00:17:23;;;;;;;11.27;3.85;;;3.20;93.20;;;;;;6333718;22;20447;-81
2022/01/13 00:19:55;;;;;;;9.20;3.35;;;3.10;93.20;;;;;;6356896;22;20015;-81
2022/01/13 00:22:39;;;;;;;9.55;3.08;;;3.20;93.20;;;;;;6356287;22;20056;-81
2022/01/13 00:25:08;;;;;;;7.78;2.60;;;3.10;93.20;;;;;;6336192;22;20030;-81
2022/01/13 00:27:37;;;;;;;9.80;3.50;;;3.20;93.20;;;;;;6335422;22;20052;-81
2022/01/13 00:30:09;;;;;;;10.13;3.80;;;3.10;93.20;;;;;;6361298;22;20034;-81
2022/01/13 00:32:35;;;;;;;8.95;3.63;;;3.10;93.20;;;;;;6358598;22;20007;-81
2022/01/13 00:35:01;;;;;;;10.05;3.72;;;3.00;93.50;;;;;;6335210;22;20011;-80
2022/01/13 00:37:27;;;;;;;13.63;5.10;;;3.10;93.30;;;;;;6335562;22;20355;-81
2022/01/13 00:39:52;;;;;;;9.57;4.07;;;3.10;93.20;;;;;;6361827;22;20410;-81
2022/01/13 00:42:18;;;;;;;11.82;3.88;;;3.10;93.20;;;;;;6335606;22;20537;-81
2022/01/13 00:44:48;;;;;;;11.98;4.45;;;3.10;93.20;;;;;;6361321;22;20338;-81
2022/01/13 00:47:14;;;;;;;15.40;4.93;;;3.10;93.20;;;;;;6335260;22;20053;-81
2022/01/13 00:49:39;;;;;;;12.25;4.05;;;3.10;93.30;;;;;;6334846;22;20014;-81
2022/01/13 00:52:05;;;;;;;10.43;4.13;;;3.10;93.30;;;;;;6335370;22;20015;-81
2022/01/13 00:54:33;;;;;;;12.95;4.65;;;3.10;93.30;;;;;;6361283;22;20033;-81
2022/01/13 00:56:59;;;;;;;9.82;3.90;;;3.10;93.30;;;;;;6335168;22;20342;-81
2022/01/13 00:59:25;;;;;;;14.25;4.15;;;3.10;93.30;;;;;;6335000;22;19999;-81
2022/01/13 01:01:52;;;;;;;10.23;4.35;;;3.10;93.30;;;;;;6334862;22;20026;-81
2022/01/13 01:04:18;;;;;;;13.05;4.97;;;3.10;93.30;;;;;;6334836;22;19999;-81
2022/01/13 01:06:45;;;;;;;11.52;4.20;;;3.00;93.30;;;;;;6334960;22;20011;-81
2022/01/13 01:09:14;;;;;;;13.63;4.47;;;3.00;93.30;;;;;;6360985;22;20103;-81
2022/01/13 01:11:41;;;;;;;13.95;4.75;;;3.00;93.30;;;;;;6335165;22;20013;-81
2022/01/13 01:14:07;;;;;;;11.93;4.68;;;3.10;93.30;;;;;;6335029;22;20029;-81
2022/01/13 01:16:36;;;;;;;10.98;4.00;;;3.00;93.30;;;;;;6360948;22;20006;-81
2022/01/13 01:19:06;;;;;;;10.75;4.05;;;3.00;93.30;;;;;;6334883;22;20068;-81
2022/01/13 01:21:51;;;;;;;11.80;4.13;;;3.00;93.30;;;;;;6334878;22;20015;-81
2022/01/13 01:24:52;;;;;;;12.85;4.40;;;3.10;93.30;;;;;;6311899;22;20025;-81
2022/01/13 01:27:15;;;;;;;13.98;4.32;;;3.10;93.40;;;;;;6333044;22;20018;-81
2022/01/13 01:29:50;;;;;;;10.60;3.90;;;3.00;93.30;;;;;;6342991;22;20477;-81
2022/01/13 01:32:17;;;;;;;12.85;4.40;;;3.10;93.30;;;;;;6335152;22;20415;-81
2022/01/13 01:35:01;;;;;;;8.20;3.42;;;3.00;93.30;;;;;;6292874;22;20011;-81
2022/01/13 01:37:29;;;;;;;11.63;3.88;;;3.20;93.40;;;;;;6335245;22;20011;-81
2022/01/13 01:39:57;;;;;;;9.23;3.75;;;3.00;93.30;;;;;;6334924;22;20140;-81
2022/01/13 01:42:24;;;;;;;11.15;3.78;;;3.00;93.30;;;;;;6302343;22;20006;-81
2022/01/13 01:44:54;;;;;;;12.25;4.00;;;3.00;93.30;;;;;;6335080;22;20092;-81
2022/01/13 01:47:22;;;;;;;8.27;3.05;;;3.10;93.40;;;;;;6334813;22;20018;-81
2022/01/13 01:49:52;;;;;;;8.13;3.22;;;3.10;93.40;;;;;;6334708;22;20015;-81
2022/01/13 01:52:20;;;;;;;9.60;3.45;;;3.00;93.40;;;;;;6336272;22;20006;-81
2022/01/13 01:54:47;;;;;;;9.27;2.90;;;3.10;93.40;;;;;;6335274;22;20319;-81
2022/01/13 01:57:15;;;;;;;10.35;3.25;;;3.00;93.40;;;;;;6334416;22;20007;-81
2022/01/13 01:59:42;;;;;;;10.75;3.25;;;3.10;93.40;;;;;;6334739;22;19998;-81
2022/01/13 02:02:11;;;;;;;10.13;2.95;;;3.10;93.40;;;;;;6334217;22;20326;-81
2022/01/13 02:04:37;;;;;;;10.02;3.10;;;3.10;93.40;;;;;;6335036;22;20369;-81
2022/01/13 02:07:05;;;;;;;8.43;2.80;;;3.10;93.40;;;;;;6334670;22;20085;-81
2022/01/13 02:09:34;;;;;;;10.82;3.22;;;3.10;93.40;;;;;;6334602;22;20007;-81
2022/01/13 02:12:05;;;;;;;11.82;3.10;;;3.10;93.40;;;;;;6309049;22;20121;-81
2022/01/13 02:14:32;;;;;;;10.07;3.83;;;3.10;93.40;;;;;;6310048;22;20015;-81
2022/01/13 02:17:05;;;;;;;9.45;2.97;;;3.20;93.40;;;;;;6308680;22;20484;-81
2022/01/13 02:19:33;;;;;;;12.60;3.45;;;3.20;93.40;;;;;;6284117;22;20007;-81
2022/01/13 02:22:00;;;;;;;10.43;3.53;;;3.10;93.40;;;;;;6310068;22;20094;-81
2022/01/13 02:24:27;;;;;;;9.65;2.97;;;3.10;93.40;;;;;;6335850;22;20037;-81
2022/01/13 02:26:54;;;;;;;7.65;2.58;;;3.20;93.40;;;;;;6335809;22;20046;-81
2022/01/13 02:29:20;;;;;;;8.93;2.85;;;3.10;93.40;;;;;;6336118;22;20011;-81
2022/01/13 02:31:46;;;;;;;11.07;3.35;;;3.20;93.40;;;;;;6284048;22;20011;-81
2022/01/13 02:34:15;;;;;;;10.65;3.42;;;3.20;93.40;;;;;;6335685;22;20010;-81
2022/01/13 02:36:44;;;;;;;13.15;3.10;;;3.10;93.40;;;;;;6310473;22;20067;-81
2022/01/13 02:39:10;;;;;;;8.13;2.67;;;3.10;93.40;;;;;;6335608;22;20010;-81
2022/01/13 02:41:35;;;;;;;10.18;3.20;;;3.10;93.40;;;;;;6336012;22;19999;-81
2022/01/13 02:44:13;;;;;;;9.43;3.38;;;3.10;93.50;;;;;;6309617;22;20376;-81
2022/01/13 02:49:24;;;;;;;9.93;2.88;;;3.10;93.40;;;;;;6309906;22;20342;-81
2022/01/13 02:51:53;;;;;;;7.05;2.63;;;3.20;93.50;;;;;;6284652;22;19995;-81
2022/01/13 02:54:19;;;;;;;5.10;2.15;;;3.10;93.50;;;;;;6335859;22;20367;-81
2022/01/13 02:56:46;;;;;;;10.43;2.85;;;3.10;93.40;;;;;;6336093;22;20028;-81
2022/01/13 02:59:13;;;;;;;7.63;2.80;;;3.20;93.50;;;;;;6283688;22;20015;-81
2022/01/13 03:01:39;;;;;;;5.35;2.20;;;3.20;93.50;;;;;;6335569;22;20090;-81
2022/01/13 03:04:08;;;;;;;7.65;2.50;;;3.10;93.50;;;;;;6309755;22;20011;-81
2022/01/13 03:06:37;;;;;;;10.00;2.80;;;3.20;93.50;;;;;;6302751;22;20011;-81
2022/01/13 03:09:05;;;;;;;5.82;2.40;;;3.20;93.50;;;;;;6284798;22;20405;-81
2022/01/13 03:11:35;;;;;;;6.75;2.65;;;3.20;93.50;;;;;;6337256;22;20371;-81
2022/01/13 03:14:04;;;;;;;7.70;2.42;;;3.10;93.50;;;;;;6337920;22;20007;-81
2022/01/13 03:16:30;;;;;;;7.00;2.30;;;3.20;93.50;;;;;;6335957;22;20025;-81
2022/01/13 03:18:56;;;;;;;8.02;2.42;;;3.20;93.50;;;;;;6335698;22;20022;-81
2022/01/13 03:21:22;;;;;;;6.57;2.20;;;3.20;93.50;;;;;;6309800;22;20010;-81
2022/01/13 03:23:48;;;;;;;5.90;2.22;;;3.20;93.50;;;;;;6283621;22;20453;-82
2022/01/13 03:26:14;;;;;;;6.55;2.55;;;3.20;93.50;;;;;;6309373;22;20052;-81
2022/01/13 03:28:51;;;;;;;6.32;2.20;;;3.20;93.50;;;;;;6283863;22;20001;-79
2022/01/13 03:31:18;;;;;;;10.15;2.50;;;3.10;93.50;;;;;;6311594;22;19999;-79
2022/01/13 03:33:46;;;;;;;6.30;2.42;;;3.20;93.50;;;;;;6335596;22;20407;-80
2022/01/13 03:36:12;;;;;;;6.93;2.03;;;3.20;93.50;;;;;;6336971;22;20334;-80
2022/01/13 03:38:39;;;;;;;5.10;2.10;;;3.20;93.50;;;;;;6337760;22;20322;-79
2022/01/13 03:41:05;;;;;;;8.40;2.35;;;3.20;93.50;;;;;;6296605;22;20003;-80
2022/01/13 03:43:31;;;;;;;6.57;2.40;;;3.10;93.50;;;;;;6309956;22;20019;-79
2022/01/13 03:45:58;;;;;;;6.28;2.13;;;3.20;93.60;;;;;;6335721;22;20010;-80
2022/01/13 03:48:24;;;;;;;5.07;2.13;;;3.20;93.60;;;;;;6335522;22;20011;-80
2022/01/13 03:50:50;;;;;;;6.55;2.10;;;3.20;93.60;;;;;;6335382;22;20011;-79
2022/01/13 03:53:55;;;;;;;7.28;2.80;;;3.10;93.60;;;;;;6283603;22;20013;-79
2022/01/13 03:57:01;;;;;;;6.55;2.40;;;3.10;93.60;;;;;;6317518;22;20042;-80
2022/01/13 03:59:56;;;;;;;5.97;2.30;;;3.10;93.60;;;;;;6296639;22;20339;-79
2022/01/13 04:02:22;;;;;;;7.05;2.13;;;3.00;93.50;;;;;;6314236;22;20010;-79
2022/01/13 04:04:49;;;;;;;6.28;2.38;;;3.00;93.50;;;;;;6337272;22;20097;-79
2022/01/13 04:07:18;;;;;;;6.60;2.72;;;3.10;93.60;;;;;;6309604;22;20010;-79
2022/01/13 04:10:17;;;;;;;8.85;3.28;;;3.00;93.60;;;;;;6337626;22;20017;-80
2022/01/13 04:12:43;;;;;;;9.93;2.92;;;3.10;93.60;;;;;;6316674;22;20023;-79
2022/01/13 04:15:12;;;;;;;7.15;2.78;;;3.00;93.50;;;;;;6335593;22;20493;-79
2022/01/13 04:17:38;;;;;;;7.75;2.80;;;3.00;93.60;;;;;;6335114;22;20007;-79
2022/01/13 04:20:04;;;;;;;6.45;2.67;;;3.00;93.60;;;;;;6335259;22;20318;-79
2022/01/13 04:22:29;;;;;;;6.70;2.90;;;3.00;93.60;;;;;;6309175;22;20002;-80
2022/01/13 04:24:55;;;;;;;6.72;2.30;;;2.90;93.60;;;;;;6283902;22;19998;-79
2022/01/13 04:27:26;;;;;;;6.00;2.30;;;2.90;93.60;;;;;;6335340;22;20042;-79
2022/01/13 04:30:21;;;;;;;5.25;2.08;;;3.00;93.60;;;;;;6284986;22;20375;-79
2022/01/13 04:32:38;;;;;;;6.07;2.60;;;2.90;93.60;;;;;;6313332;22;20015;-80
2022/01/13 04:35:05;;;;;;;6.10;2.40;;;3.00;93.70;;;;;;6302671;22;20033;-79
2022/01/13 04:37:31;;;;;;;6.50;2.53;;;2.90;93.60;;;;;;6335501;22;20070;-79
2022/01/13 04:39:56;;;;;;;10.25;3.03;;;2.80;93.60;;;;;;6309149;22;20030;-79
2022/01/13 04:42:23;;;;;;;7.85;2.60;;;2.90;93.70;;;;;;6283202;22;20005;-79
2022/01/13 04:44:48;;;;;;;6.38;2.40;;;2.80;93.70;;;;;;6309212;22;20007;-79
2022/01/13 04:47:14;;;;;;;10.32;2.53;;;2.80;93.70;;;;;;6335326;22;20315;-78
2022/01/13 04:49:40;;;;;;;7.95;2.70;;;2.80;93.70;;;;;;6335083;22;20399;-79
2022/01/13 04:52:06;;;;;;;8.38;2.45;;;2.80;93.70;;;;;;6309419;22;20064;-79
2022/01/13 04:54:31;;;;;;;6.63;2.22;;;2.80;93.70;;;;;;6337352;22;20419;-79
2022/01/13 04:57:07;;;;;;;6.57;2.50;;;2.80;93.70;;;;;;6335013;22;20031;-79
2022/01/13 04:59:33;;;;;;;7.00;2.58;;;2.80;93.70;;;;;;6312090;22;20014;-78
2022/01/13 05:02:00;;;;;;;7.18;2.30;;;2.80;93.70;;;;;;6299484;22;20007;-79
2022/01/13 05:04:26;;;;;;;7.32;2.53;;;2.80;93.70;;;;;;6335428;22;20052;-79
2022/01/13 05:06:52;;;;;;;4.50;1.95;;;2.80;93.70;;;;;;6309298;22;20034;-79
2022/01/13 05:09:18;;;;;;;6.18;2.28;;;2.80;93.70;;;;;;6335442;22;20002;-79
2022/01/13 05:11:43;;;;;;;5.47;2.10;;;2.80;93.70;;;;;;6309580;22;19995;-79
2022/01/13 05:14:09;;;;;;;6.90;2.05;;;2.80;93.70;;;;;;6283408;22;20002;-79
2022/01/13 05:16:51;;;;;;;5.43;2.08;;;2.90;93.80;;;;;;6334935;22;20003;-79
2022/01/13 05:19:23;;;;;;;5.18;2.00;;;2.80;93.70;;;;;;6313099;22;20014;-79
2022/01/13 05:24:30;;;;;;;5.13;1.83;;;2.80;93.80;;;;;;6335525;22;20011;-79
2022/01/13 05:26:56;;;;;;;6.18;2.03;;;2.80;93.80;;;;;;6296928;22;20014;-79
2022/01/13 05:29:22;;;;;;;6.95;2.38;;;2.80;93.80;;;;;;6283612;22;20036;-79
2022/01/13 05:31:49;;;;;;;6.95;2.50;;;2.80;93.70;;;;;;6283300;22;20018;-79
2022/01/13 05:34:16;;;;;;;5.75;1.90;;;2.90;93.80;;;;;;6283517;22;20007;-79
2022/01/13 05:36:42;;;;;;;6.20;2.20;;;2.80;93.70;;;;;;6283296;22;20046;-79
2022/01/13 05:39:08;;;;;;;6.53;2.47;;;2.80;93.80;;;;;;6283514;22;20026;-79
2022/01/13 05:41:34;;;;;;;5.82;2.13;;;2.80;93.90;;;;;;6336876;22;20462;-79
2022/01/13 05:44:00;;;;;;;7.28;2.22;;;2.80;93.80;;;;;;6282883;22;20499;-79
2022/01/13 05:46:26;;;;;;;6.50;2.05;;;2.80;93.80;;;;;;6309061;22;20007;-79
2022/01/13 05:48:54;;;;;;;4.93;1.92;;;2.80;93.80;;;;;;6336940;22;20010;-79
2022/01/13 05:51:20;;;;;;;6.25;2.22;;;2.80;93.80;;;;;;6309903;22;20010;-80
2022/01/13 05:53:46;;;;;;;5.20;1.92;;;2.70;93.70;;;;;;6334944;22;20094;-79
2022/01/13 05:56:13;;;;;;;6.45;2.00;;;2.70;93.70;;;;;;6284556;22;20079;-79
2022/01/13 05:58:39;;;;;;;3.92;1.63;;;2.80;93.80;;;;;;6284426;22;20097;-79
2022/01/13 06:01:05;;;;;;;7.00;2.30;;;2.70;93.80;;;;;;6310517;22;20010;-79
2022/01/13 06:03:31;;;;;;;4.20;1.70;;;2.70;93.80;;;;;;6310476;22;20330;-79
2022/01/13 06:05:57;;;;;;;5.45;2.03;;;2.70;94.00;;;;;;6336840;22;20103;-79
2022/01/13 06:08:23;;;;;;;4.38;1.70;;;2.70;93.80;;;;;;6284831;22;20419;-79
2022/01/13 06:10:48;;;;;;;4.47;1.73;;;2.70;93.80;;;;;;6284334;22;20013;-79
2022/01/13 06:13:14;;;;;;;4.85;1.85;;;2.80;93.80;;;;;;6284283;22;20023;-79
2022/01/13 06:15:41;;;;;;;5.18;2.00;;;2.70;93.80;;;;;;6336613;22;20010;-78
2022/01/13 06:18:11;;;;;;;6.47;1.95;;;2.60;93.80;;;;;;6310903;22;20011;-77
2022/01/13 06:20:39;;;;;;;5.90;1.77;;;2.70;93.80;;;;;;6310497;22;20006;-78
2022/01/13 06:23:05;;;;;;;7.95;2.50;;;2.70;93.90;;;;;;6285226;22;20029;-78
2022/01/13 06:25:31;;;;;;;5.03;2.15;;;2.60;93.80;;;;;;6284089;22;20056;-80
2022/01/13 06:27:57;;;;;;;6.35;2.33;;;2.60;93.80;;;;;;6280063;22;20015;-81
2022/01/13 06:30:23;;;;;;;6.63;2.30;;;2.70;93.90;;;;;;6284796;22;20338;-80
2022/01/13 06:32:49;;;;;;;4.65;1.90;;;2.60;93.80;;;;;;6309991;22;20014;-80
2022/01/13 06:35:15;;;;;;;6.28;2.22;;;2.60;93.80;;;;;;6284461;22;20288;-81
2022/01/13 06:37:43;;;;;;;6.20;2.17;;;2.60;93.80;;;;;;6336885;22;20088;-79
2022/01/13 06:40:12;;;;;;;5.00;2.08;;;2.60;93.90;;;;;;6336051;22;20003;-81
2022/01/13 06:42:38;;;;;;;6.22;2.10;;;2.70;93.90;;;;;;6278295;22;20077;-82
2022/01/13 06:45:06;;;;;;;6.55;1.95;;;2.60;93.90;;;;;;6306761;22;20010;-81
2022/01/13 06:47:32;;;;;;;5.15;1.80;;;2.60;93.90;;;;;;6310495;22;20007;-81
2022/01/13 06:50:00;;;;;;;5.55;2.00;;;2.60;93.80;;;;;;6336153;22;20043;-81
2022/01/13 06:52:26;;;;;;;4.30;1.80;;;2.60;93.90;;;;;;6284824;22;20327;-81
2022/01/13 06:54:52;;;;;;;5.10;2.08;;;2.60;93.90;;;;;;6297154;22;20015;-81
2022/01/13 06:57:19;;;;;;;3.22;1.55;;;2.60;93.90;;;;;;6297306;22;20500;-81
2022/01/13 06:59:46;;;;;;;6.82;2.00;;;2.60;93.90;;;;;;6300574;22;20003;-79
2022/01/13 07:02:13;;;;;;;4.90;2.13;;;2.60;93.90;;;;;;6310332;22;20011;-80
2022/01/13 07:04:39;;;;;;;5.57;2.30;;;2.60;93.90;;;;;;6310647;22;20335;-79
2022/01/13 07:07:05;;;;;;;4.43;1.70;;;2.60;93.90;;;;;;6284516;22;20002;-78
2022/01/13 07:09:31;;;;;;;5.43;1.77;;;2.50;93.90;;;;;;6336290;22;20007;-79
2022/01/13 07:11:57;;;;;;;4.10;1.40;;;2.60;93.90;;;;;;6283851;22;20097;-80
2022/01/13 07:14:23;;;;;;;5.13;1.73;;;2.60;93.90;;;;;;6284193;22;20019;-80
2022/01/13 07:16:49;;;;;;;4.63;1.60;;;2.60;93.90;;;;;;6283728;22;20006;-80
2022/01/13 07:19:16;;;;;;;7.75;1.90;;;2.60;93.90;;;;;;6336390;22;20007;-80
2022/01/13 07:21:44;;;;;;;4.85;2.00;;;2.60;93.90;;;;;;6283369;22;20011;-80
2022/01/13 07:57:33;;;;;;;9.85;4.03;;;2.40;91.20;;;;;;5171536;27;20126;-78
2022/01/13 07:59:58;;;;;;;7.43;3.47;;;2.80;94.10;;;;;;5132047;27;20050;-78
2022/01/13 08:02:24;;;;;;;6.07;2.55;;;2.80;94.10;;;;;;5138898;27;20039;-77
2022/01/13 08:04:50;;;;;;;6.05;2.38;;;2.90;94.10;;;;;;5108536;27;20033;-76
2022/01/13 08:07:16;;;;;;;5.55;2.33;;;2.80;94.10;;;;;;5154274;27;20095;-77
2022/01/13 08:09:42;;;;;;;4.65;1.77;;;2.90;94.10;;;;;;5150242;27;20504;-77
2022/01/13 08:12:08;;;;;;;4.78;1.92;;;2.90;94.10;;;;;;5131830;27;20039;-75
2022/01/13 08:14:34;;;;;;;5.50;2.10;;;2.90;94.10;;;;;;5114934;27;20035;-78
2022/01/13 08:17:02;;;;;;;5.43;2.00;;;2.80;94.10;;;;;;5114555;27;20095;-77
2022/01/13 08:22:04;;;;;;;6.20;1.85;;;2.90;94.00;;;;;;5117896;27;20066;-77
2022/01/13 08:24:30;;;;;;;4.18;1.50;;;2.90;94.10;;;;;;5137170;27;20095;-76
2022/01/13 08:26:56;;;;;;;4.57;1.73;;;2.80;94.10;;;;;;5124107;27;20043;-79
2022/01/13 08:29:21;;;;;;;5.70;2.13;;;2.90;94.10;;;;;;5150958;27;20046;-78
2022/01/13 08:31:47;;;;;;;4.28;1.50;;;2.90;94.10;;;;;;5132951;27;20054;-77
2022/01/13 08:34:15;;;;;;;5.00;1.95;;;2.90;94.10;;;;;;5149854;27;20035;-78
2022/01/13 08:36:44;;;;;;;4.22;1.77;;;2.90;94.10;;;;;;5131791;27;20043;-78
2022/01/13 08:39:11;;;;;;;4.30;1.60;;;2.90;94.10;;;;;;5097579;27;20485;-79
2022/01/13 08:41:40;;;;;;;3.47;1.70;;;2.90;94.10;;;;;;5114368;27;20046;-77
2022/01/13 08:44:06;;;;;;;5.55;1.83;;;2.90;94.00;;;;;;5114780;27;20039;-77
2022/01/13 08:46:32;;;;;;;3.72;1.75;;;2.90;94.00;;;;;;5114157;27;20051;-78
2022/01/13 08:48:58;;;;;;;4.85;1.92;;;2.90;94.00;;;;;;5113887;27;20042;-78
2022/01/13 08:51:23;;;;;;;4.60;1.55;;;2.90;94.00;;;;;;5131080;27;20400;-77
2022/01/13 08:53:49;;;;;;;4.05;1.58;;;2.90;94.00;;;;;;5131078;27;20042;-77
2022/01/13 08:56:15;;;;;;;4.65;2.00;;;2.90;94.00;;;;;;5113820;27;20125;-77
2022/01/13 08:58:42;;;;;;;4.13;1.92;;;2.90;94.10;;;;;;5117016;28;20051;-76
2022/01/13 09:01:10;;;;;;;4.78;1.83;;;3.00;94.00;;;;;;5117429;28;20100;-75
2022/01/13 09:03:36;;;;;;;5.30;1.90;;;2.90;94.00;;;;;;5100215;28;20039;-76
2022/01/13 09:06:03;;;;;;;4.95;2.05;;;2.90;94.00;;;;;;5099992;28;20447;-77
2022/01/13 09:08:30;;;;;;;3.88;1.60;;;2.90;94.00;;;;;;5117832;28;20451;-76
2022/01/13 09:10:56;;;;;;;4.68;1.67;;;3.10;94.10;;;;;;5117139;28;20067;-76
2022/01/13 09:13:22;;;;;;;5.20;1.55;;;3.00;94.00;;;;;;5099891;28;20043;-76
2022/01/13 09:15:58;;;;;;;4.00;1.70;;;3.00;94.00;;;;;;5116986;28;20046;-76
2022/01/13 09:18:58;;;;;;;4.88;1.95;;;2.90;94.00;;;;;;5119043;28;20050;-77
2022/01/13 09:21:11;;;;;;;5.20;1.77;;;3.00;94.00;;;;;;5119837;28;20083;-76
2022/01/13 09:23:37;;;;;;;5.90;2.30;;;3.00;94.00;;;;;;5116549;28;20043;-76
2022/01/13 09:26:05;;;;;;;5.80;2.15;;;3.00;94.00;;;;;;5116512;28;20472;-78
2022/01/13 09:28:32;;;;;;;4.80;1.75;;;3.00;93.90;;;;;;5099949;28;20127;-75
2022/01/13 09:30:58;;;;;;;5.00;1.83;;;3.00;94.00;;;;;;5116840;28;20067;-76
2022/01/13 09:33:25;;;;;;;4.22;1.70;;;3.00;94.00;;;;;;5116855;28;20070;-75
2022/01/13 09:35:51;;;;;;;4.00;1.70;;;3.00;94.00;;;;;;5083163;28;20039;-76
2022/01/13 09:38:17;;;;;;;3.50;1.63;;;3.10;94.00;;;;;;5116606;28;20119;-77
2022/01/13 09:40:45;;;;;;;4.43;1.98;;;3.20;94.00;;;;;;5099802;28;20501;-79
2022/01/13 09:43:12;;;;;;;5.45;2.15;;;3.10;94.00;;;;;;5100006;28;20035;-77
2022/01/13 09:45:38;;;;;;;4.25;1.50;;;3.10;93.90;;;;;;5116674;28;20070;-76
2022/01/13 09:48:05;;;;;;;3.38;1.52;;;3.00;93.90;;;;;;5099685;28;20374;-75
2022/01/13 09:50:32;;;;;;;4.85;2.10;;;3.20;94.00;;;;;;5135679;28;20120;-76
2022/01/13 09:52:59;;;;;;;3.55;1.60;;;3.10;94.00;;;;;;5071244;28;20028;-76
2022/01/13 09:55:25;;;;;;;4.03;1.60;;;3.20;94.00;;;;;;5038115;28;20051;-75
2022/01/13 09:57:52;;;;;;;5.50;1.92;;;3.20;94.00;;;;;;5037886;28;20087;-76
2022/01/13 10:00:21;;;;;;;5.68;1.90;;;3.30;94.00;;;;;;5038025;28;20106;-76
2022/01/13 10:02:47;;;;;;;3.85;1.52;;;3.30;94.00;;;;;;5011714;28;20049;-80
2022/01/13 10:05:17;;;;;;;5.25;2.15;;;3.20;94.00;;;;;;5011695;28;20374;-78
2022/01/13 10:07:44;;;;;;;4.35;1.85;;;3.20;93.90;;;;;;5011698;28;20038;-80
2022/01/13 10:10:14;;;;;;;5.00;2.15;;;3.30;93.90;;;;;;5010668;28;20532;-80
2022/01/13 10:12:44;;;;;;;5.82;2.05;;;3.30;94.00;;;;;;4977264;28;20501;-79
2022/01/13 10:17:52;;;;;;;4.35;1.67;;;3.30;93.90;;;;;;4996751;28;20076;-80
2022/01/13 10:20:24;;;;;;;5.18;1.92;;;3.40;93.90;;;;;;4978809;28;20065;-81
2022/01/13 10:22:50;;;;;;;4.95;1.73;;;3.30;93.90;;;;;;4980299;28;20049;-80
2022/01/13 10:25:33;;;;;;;5.72;2.28;;;3.30;93.90;;;;;;5021231;28;20072;-79
2022/01/13 10:28:15;;;;;;;4.72;1.63;;;3.30;93.90;;;;;;5037254;28;20040;-79
2022/01/13 10:30:42;;;;;;;4.22;1.65;;;3.40;93.90;;;;;;5036410;28;20045;-80
2022/01/13 10:33:20;;;;;;;3.42;1.60;;;3.40;93.90;;;;;;5020345;28;20119;-77
2022/01/13 10:35:48;;;;;;;4.90;2.10;;;3.50;93.90;;;;;;5115647;28;20477;-78
2022/01/13 10:38:17;;;;;;;3.50;1.55;;;3.50;93.90;;;;;;5082030;28;20058;-79
2022/01/13 10:40:47;;;;;;;5.13;2.03;;;3.50;93.90;;;;;;5116214;28;20035;-78
2022/01/13 10:43:15;;;;;;;4.22;1.90;;;3.50;93.90;;;;;;5082257;28;20038;-78
2022/01/13 10:45:45;;;;;;;3.33;1.77;;;3.40;93.90;;;;;;5081690;28;20054;-77
2022/01/13 10:48:22;;;;;;;5.53;2.45;;;3.50;93.90;;;;;;5081774;28;20095;-80
2022/01/13 10:51:07;;;;;;;5.43;2.30;;;3.50;93.90;;;;;;5098537;28;20027;-80
2022/01/13 10:53:36;;;;;;;4.63;1.90;;;3.40;93.90;;;;;;5098697;28;20042;-80
2022/01/13 10:56:06;;;;;;;5.70;2.42;;;3.40;93.90;;;;;;5098601;28;20046;-76
2022/01/13 10:58:40;;;;;;;6.38;2.33;;;3.50;93.90;;;;;;5081707;28;20466;-76
2022/01/13 11:01:09;;;;;;;6.15;2.35;;;3.50;93.90;;;;;;5099276;28;20131;-78
2022/01/13 11:03:40;;;;;;;5.60;2.10;;;3.50;93.90;;;;;;5081571;28;20187;-78
2022/01/13 11:06:09;;;;;;;6.20;2.53;;;3.50;93.90;;;;;;5098814;28;20039;-77
2022/01/13 11:08:41;;;;;;;6.03;2.20;;;3.50;94.00;;;;;;5133543;28;20031;-78
2022/01/13 11:11:27;;;;;;;4.63;2.00;;;3.50;93.90;;;;;;5116445;28;20114;-78
2022/01/13 11:14:00;;;;;;;4.07;2.00;;;3.50;93.90;;;;;;5117245;28;20138;-78
2022/01/13 11:16:26;;;;;;;4.22;1.83;;;3.50;93.90;;;;;;5133237;28;20126;-77
2022/01/13 11:18:53;;;;;;;5.65;1.65;;;3.60;94.00;;;;;;5115112;28;20043;-78
2022/01/13 11:21:20;;;;;;;5.88;2.17;;;3.70;94.00;;;;;;5132911;27;20080;-78
2022/01/13 11:23:50;;;;;;;5.97;2.35;;;3.60;93.90;;;;;;5133269;28;20096;-77
2022/01/13 11:26:17;;;;;;;6.28;2.38;;;3.60;93.90;;;;;;5133051;28;20082;-78
2022/01/13 11:28:43;;;;;;;7.10;2.20;;;3.50;93.90;;;;;;5115002;28;20138;-78
2022/01/13 11:31:10;;;;;;;6.05;2.63;;;3.50;93.90;;;;;;5097919;28;20070;-77
2022/01/13 11:33:38;;;;;;;5.47;2.13;;;3.50;94.00;;;;;;5114813;28;20043;-77
2022/01/13 11:36:06;;;;;;;6.53;2.20;;;3.60;94.00;;;;;;5133365;28;20047;-78
2022/01/13 11:38:32;;;;;;;4.75;2.05;;;3.60;94.00;;;;;;5115065;28;20485;-78
2022/01/13 11:41:02;;;;;;;5.95;2.30;;;3.60;93.90;;;;;;5098524;28;20096;-76
2022/01/13 11:43:32;;;;;;;5.50;2.40;;;3.60;94.00;;;;;;5115160;28;20043;-79
2022/01/13 11:46:12;;;;;;;5.13;2.25;;;3.50;94.00;;;;;;5097938;28;20137;-78
2022/01/13 11:48:41;;;;;;;4.05;1.80;;;3.60;94.00;;;;;;5114978;28;20070;-79
2022/01/13 11:52:26;;;;;;;5.60;2.22;;;3.60;94.00;;;;;;5069191;28;20063;-82
2022/01/13 11:58:43;;;;;;;5.65;2.10;;;3.50;93.90;;;;;;4986975;28;20057;-80
2022/01/13 12:01:45;;;;;;;6.05;2.25;;;3.60;93.90;;;;;;4952795;28;20042;-82
2022/01/13 12:04:44;;;;;;;5.38;2.15;;;3.60;93.90;;;;;;4909857;29;20044;-84
2022/01/13 12:07:42;;;;;;;5.03;2.40;;;3.50;93.90;;;;;;4889838;29;20052;-82
2022/01/13 12:10:08;;;;;;;5.25;2.60;;;3.60;94.00;;;;;;4897981;29;20534;-82
2022/01/13 12:12:35;;;;;;;5.57;2.33;;;3.50;93.90;;;;;;4897631;29;20076;-81
2022/01/13 12:15:16;;;;;;;6.82;2.78;;;3.60;94.00;;;;;;4882151;29;20130;-79
2022/01/13 12:17:46;;;;;;;5.28;2.30;;;3.40;93.90;;;;;;4882106;29;20141;-79
2022/01/13 12:20:39;;;;;;;6.82;2.53;;;3.50;94.00;;;;;;4897522;29;20050;-83
2022/01/13 12:23:16;;;;;;;6.60;2.53;;;3.50;94.00;;;;;;4932918;29;20074;-82
2022/01/13 12:25:43;;;;;;;4.78;1.80;;;3.50;94.00;;;;;;4943317;28;20501;-81
2022/01/13 12:28:27;;;;;;;5.57;2.28;;;3.50;94.00;;;;;;4950655;28;20042;-81
2022/01/13 12:30:52;;;;;;;6.10;2.20;;;3.60;94.00;;;;;;5012803;28;20052;-83
2022/01/13 12:33:58;;;;;;;3.95;1.63;;;3.60;94.00;;;;;;4981539;28;20432;-86
2022/01/13 12:45:28;;;;;;;5.68;1.70;;;3.60;94.00;;;;;;5031060;28;20091;-82
2022/01/13 12:47:42;;;;;;;4.30;1.77;;;3.60;94.00;;;;;;4935708;29;20031;-78
2022/01/13 12:50:25;;;;;;;3.65;1.73;;;3.60;94.00;;;;;;4899670;29;20142;-79
2022/01/13 12:52:55;;;;;;;4.68;1.77;;;3.60;94.00;;;;;;4897910;29;20128;-80
2022/01/13 12:55:21;;;;;;;4.78;1.77;;;3.50;94.00;;;;;;4900408;29;20036;-80
2022/01/13 12:57:52;;;;;;;5.35;2.03;;;3.70;94.00;;;;;;4916356;29;20044;-81
2022/01/13 13:00:21;;;;;;;4.65;2.03;;;3.70;94.00;;;;;;4900658;29;20040;-81
2022/01/13 13:02:57;;;;;;;3.80;1.73;;;3.70;94.00;;;;;;4917311;29;20056;-80
2022/01/13 13:05:31;;;;;;;4.57;1.83;;;3.70;94.00;;;;;;4918665;29;20076;-80
2022/01/13 13:07:58;;;;;;;5.90;2.03;;;3.80;94.00;;;;;;4900644;29;20040;-83
2022/01/13 13:10:24;;;;;;;6.32;2.42;;;3.60;94.00;;;;;;4916465;29;20054;-81
2022/01/13 13:12:52;;;;;;;7.60;2.78;;;3.80;94.00;;;;;;4942872;28;20039;-82
2022/01/13 13:18:04;;;;;;;8.85;2.95;;;3.60;94.00;;;;;;5084143;27;20089;-77
2022/01/13 13:20:32;;;;;;;7.03;2.97;;;3.60;94.00;;;;;;5117681;28;20031;-79
2022/01/13 13:23:00;;;;;;;6.53;2.72;;;3.60;94.00;;;;;;5083363;28;20050;-77
2022/01/13 13:25:32;;;;;;;8.18;3.00;;;3.60;94.10;;;;;;5099969;28;20088;-77
2022/01/13 13:28:18;;;;;;;6.43;2.50;;;3.60;94.00;;;;;;5099849;28;20145;-77
2022/01/13 13:30:45;;;;;;;7.03;2.83;;;3.50;94.00;;;;;;5083771;27;20103;-77
2022/01/13 13:33:11;;;;;;;6.55;2.83;;;3.60;94.00;;;;;;5083001;28;20512;-77
2022/01/13 13:35:37;;;;;;;7.45;2.92;;;3.60;94.10;;;;;;5135428;27;20120;-78
2022/01/13 13:38:02;;;;;;;7.38;2.88;;;3.60;94.00;;;;;;5116857;28;20039;-78
2022/01/13 13:40:28;;;;;;;7.43;2.97;;;3.60;94.10;;;;;;5116865;28;20085;-79
2022/01/13 13:43:03;;;;;;;7.85;3.10;;;3.70;94.10;;;;;;5099207;27;20031;-78
2022/01/13 13:45:29;;;;;;;7.43;2.80;;;3.60;94.00;;;;;;5134738;28;20071;-78
2022/01/13 13:47:56;;;;;;;7.63;2.70;;;3.70;94.00;;;;;;5099815;28;20486;-77
2022/01/13 13:50:23;;;;;;;9.45;2.50;;;3.60;94.10;;;;;;5134735;28;20126;-78
2022/01/13 13:53:07;;;;;;;6.57;2.50;;;3.70;94.10;;;;;;5099337;28;20031;-77
2022/01/13 13:55:35;;;;;;;6.60;2.60;;;3.70;94.10;;;;;;5098883;28;20039;-75
2022/01/13 13:58:01;;;;;;;7.85;2.60;;;3.60;94.00;;;;;;5134632;27;20039;-77
2022/01/13 14:00:27;;;;;;;6.38;2.38;;;3.70;94.10;;;;;;5116339;28;20039;-77
2022/01/13 14:02:56;;;;;;;5.53;2.10;;;3.70;94.10;;;;;;5134701;28;20035;-76
2022/01/13 14:05:26;;;;;;;5.90;2.80;;;3.70;94.00;;;;;;5117401;28;20039;-77
2022/01/13 14:07:52;;;;;;;5.60;2.67;;;3.70;94.00;;;;;;5117046;28;20046;-76
2022/01/13 14:10:22;;;;;;;6.28;2.30;;;3.70;94.10;;;;;;5135112;28;20042;-76